sensor_id;sensor_type;location;lat;lon;timestamp;pressure;altitude;pressure_sealevel;temperature
61977;BMP280;45905;50.570;10.428;2023-04-06T00:01:19;98229.75;;;1.27
61977;BMP280;45905;50.570;10.428;2023-04-06T00:03:46;98224.94;;;1.24
61977;BMP280;45905;50.570;10.428;2023-04-06T00:06:14;98220.16;;;1.21
61977;BMP280;45905;50.570;10.428;2023-04-06T00:08:43;98228.72;;;1.17
61977;BMP280;45905;50.570;10.428;2023-04-06T00:11:11;98223.91;;;1.14
61977;BMP280;45905;50.570;10.428;2023-04-06T00:13:38;98212.50;;;1.10
61977;BMP280;45905;50.570;10.428;2023-04-06T00:16:06;98222.56;;;1.09
61977;BMP280;45905;50.570;10.428;2023-04-06T00:18:34;98215.91;;;1.09
61977;BMP280;45905;50.570;10.428;2023-04-06T00:21:01;98221.06;;;1.06
61977;BMP280;45905;50.570;10.428;2023-04-06T00:23:28;98217.97;;;1.03
61977;BMP280;45905;50.570;10.428;2023-04-06T00:25:55;98214.84;;;0.99
61977;BMP280;45905;50.570;10.428;2023-04-06T00:28:23;98221.59;;;0.97
61977;BMP280;45905;50.570;10.428;2023-04-06T00:30:52;98210.13;;;0.95
61977;BMP280;45905;50.570;10.428;2023-04-06T00:33:23;98220.19;;;0.94
61977;BMP280;45905;50.570;10.428;2023-04-06T00:35:51;98214.47;;;0.92
61977;BMP280;45905;50.570;10.428;2023-04-06T00:38:18;98216.25;;;0.90
61977;BMP280;45905;50.570;10.428;2023-04-06T00:40:45;98216.47;;;0.87
61977;BMP280;45905;50.570;10.428;2023-04-06T00:43:14;98215.03;;;0.83
61977;BMP280;45905;50.570;10.428;2023-04-06T00:45:42;98211.00;;;0.80
61977;BMP280;45905;50.570;10.428;2023-04-06T00:48:10;98207.03;;;0.78
61977;BMP280;45905;50.570;10.428;2023-04-06T00:50:38;98213.78;;;0.76
61977;BMP280;45905;50.570;10.428;2023-04-06T00:53:05;98217.16;;;0.75
61977;BMP280;45905;50.570;10.428;2023-04-06T00:55:32;98212.34;;;0.72
61977;BMP280;45905;50.570;10.428;2023-04-06T00:58:00;98207.56;;;0.69
61977;BMP280;45905;50.570;10.428;2023-04-06T01:00:32;98197.75;;;0.66
61977;BMP280;45905;50.570;10.428;2023-04-06T01:03:01;98206.13;;;0.65
61977;BMP280;45905;50.570;10.428;2023-04-06T01:05:38;98201.28;;;0.62
61977;BMP280;45905;50.570;10.428;2023-04-06T01:08:15;98202.38;;;0.58
61977;BMP280;45905;50.570;10.428;2023-04-06T01:10:42;98199.09;;;0.58
61977;BMP280;45905;50.570;10.428;2023-04-06T01:13:22;98195.88;;;0.56
61977;BMP280;45905;50.570;10.428;2023-04-06T01:15:55;98207.63;;;0.54
61977;BMP280;45905;50.570;10.428;2023-04-06T01:18:32;98198.66;;;0.52
61977;BMP280;45905;50.570;10.428;2023-04-06T01:21:11;98197.94;;;0.50
61977;BMP280;45905;50.570;10.428;2023-04-06T01:23:57;98198.91;;;0.47
61977;BMP280;45905;50.570;10.428;2023-04-06T01:26:33;98192.31;;;0.46
61977;BMP280;45905;50.570;10.428;2023-04-06T01:29:03;98198.09;;;0.47
61977;BMP280;45905;50.570;10.428;2023-04-06T01:31:31;98192.38;;;0.45
61977;BMP280;45905;50.570;10.428;2023-04-06T01:33:58;98188.47;;;0.41
61977;BMP280;45905;50.570;10.428;2023-04-06T01:36:26;98186.16;;;0.38
61977;BMP280;45905;50.570;10.428;2023-04-06T01:39:06;98191.50;;;0.32
61977;BMP280;45905;50.570;10.428;2023-04-06T01:41:36;98194.88;;;0.31
61977;BMP280;45905;50.570;10.428;2023-04-06T01:44:04;98190.06;;;0.28
61977;BMP280;45905;50.570;10.428;2023-04-06T01:46:32;98187.75;;;0.25
61977;BMP280;45905;50.570;10.428;2023-04-06T01:49:01;98185.16;;;0.27
61977;BMP280;45905;50.570;10.428;2023-04-06T01:51:36;98186.84;;;0.26
61977;BMP280;45905;50.570;10.428;2023-04-06T01:54:06;98187.84;;;0.24
61977;BMP280;45905;50.570;10.428;2023-04-06T01:56:48;98189.69;;;0.20
61977;BMP280;45905;50.570;10.428;2023-04-06T01:59:29;98183.19;;;0.18
61977;BMP280;45905;50.570;10.428;2023-04-06T02:01:58;98181.84;;;0.13
61977;BMP280;45905;50.570;10.428;2023-04-06T02:04:27;98177.03;;;0.10
61977;BMP280;45905;50.570;10.428;2023-04-06T02:07:05;98177.13;;;0.08
61977;BMP280;45905;50.570;10.428;2023-04-06T02:09:32;98182.19;;;0.07
61977;BMP280;45905;50.570;10.428;2023-04-06T02:11:59;98183.16;;;0.04
61977;BMP280;45905;50.570;10.428;2023-04-06T02:14:30;98174.16;;;0.02
61977;BMP280;45905;50.570;10.428;2023-04-06T02:16:59;98175.06;;;0.01
61977;BMP280;45905;50.570;10.428;2023-04-06T02:19:26;98171.06;;;-0.01
61977;BMP280;45905;50.570;10.428;2023-04-06T02:21:54;98170.34;;;-0.03
61977;BMP280;45905;50.570;10.428;2023-04-06T02:24:22;98184.56;;;-0.05
61977;BMP280;45905;50.570;10.428;2023-04-06T02:26:49;98168.81;;;-0.06
61977;BMP280;45905;50.570;10.428;2023-04-06T02:29:16;98181.34;;;-0.07
61977;BMP280;45905;50.570;10.428;2023-04-06T02:31:44;98178.97;;;-0.09
61977;BMP280;45905;50.570;10.428;2023-04-06T02:34:11;98172.53;;;-0.13
61977;BMP280;45905;50.570;10.428;2023-04-06T02:36:47;98175.19;;;-0.16
61977;BMP280;45905;50.570;10.428;2023-04-06T02:39:15;98175.38;;;-0.19
61977;BMP280;45905;50.570;10.428;2023-04-06T02:41:42;98172.88;;;-0.19
61977;BMP280;45905;50.570;10.428;2023-04-06T02:44:11;98181.41;;;-0.22
61977;BMP280;45905;50.570;10.428;2023-04-06T02:46:42;98173.56;;;-0.30
61977;BMP280;45905;50.570;10.428;2023-04-06T02:49:09;98172.09;;;-0.34
61977;BMP280;45905;50.570;10.428;2023-04-06T02:51:37;98174.78;;;-0.37
61977;BMP280;45905;50.570;10.428;2023-04-06T02:54:17;98174.94;;;-0.40
61977;BMP280;45905;50.570;10.428;2023-04-06T02:56:44;98177.44;;;-0.40
61977;BMP280;45905;50.570;10.428;2023-04-06T02:59:12;98172.44;;;-0.40
61977;BMP280;45905;50.570;10.428;2023-04-06T03:01:44;98172.44;;;-0.40
61977;BMP280;45905;50.570;10.428;2023-04-06T03:04:11;98170.03;;;-0.41
61977;BMP280;45905;50.570;10.428;2023-04-06T03:06:39;98165.88;;;-0.41
61977;BMP280;45905;50.570;10.428;2023-04-06T03:09:17;98171.72;;;-0.42
61977;BMP280;45905;50.570;10.428;2023-04-06T03:11:45;98175.81;;;-0.41
61977;BMP280;45905;50.570;10.428;2023-04-06T03:14:12;98174.41;;;-0.45
61977;BMP280;45905;50.570;10.428;2023-04-06T03:16:39;98180.19;;;-0.44
61977;BMP280;45905;50.570;10.428;2023-04-06T03:19:06;98171.19;;;-0.47
61977;BMP280;45905;50.570;10.428;2023-04-06T03:21:35;98182.91;;;-0.49
61977;BMP280;45905;50.570;10.428;2023-04-06T03:24:03;98184.66;;;-0.51
61977;BMP280;45905;50.570;10.428;2023-04-06T03:26:30;98177.38;;;-0.54
61977;BMP280;45905;50.570;10.428;2023-04-06T03:29:03;98186.53;;;-0.54
61977;BMP280;45905;50.570;10.428;2023-04-06T03:31:31;98180.03;;;-0.57
61977;BMP280;45905;50.570;10.428;2023-04-06T03:34:18;98172.63;;;-0.58
61977;BMP280;45905;50.570;10.428;2023-04-06T03:36:45;98178.50;;;-0.59
61977;BMP280;45905;50.570;10.428;2023-04-06T03:39:23;98173.59;;;-0.60
61977;BMP280;45905;50.570;10.428;2023-04-06T03:41:51;98176.09;;;-0.60
61977;BMP280;45905;50.570;10.428;2023-04-06T03:44:41;98179.56;;;-0.63
61977;BMP280;45905;50.570;10.428;2023-04-06T03:47:08;98181.25;;;-0.63
61977;BMP280;45905;50.570;10.428;2023-04-06T03:49:35;98183.72;;;-0.63
61977;BMP280;45905;50.570;10.428;2023-04-06T03:52:07;98183.06;;;-0.67
61977;BMP280;45905;50.570;10.428;2023-04-06T03:54:34;98192.41;;;-0.70
61977;BMP280;45905;50.570;10.428;2023-04-06T03:57:02;98193.28;;;-0.71
61977;BMP280;45905;50.570;10.428;2023-04-06T03:59:29;98196.66;;;-0.72
61977;BMP280;45905;50.570;10.428;2023-04-06T04:01:56;98202.72;;;-0.77
61977;BMP280;45905;50.570;10.428;2023-04-06T04:04:24;98200.34;;;-0.79
61977;BMP280;45905;50.570;10.428;2023-04-06T04:06:51;98199.78;;;-0.84
61977;BMP280;45905;50.570;10.428;2023-04-06T04:09:18;98205.63;;;-0.85
61977;BMP280;45905;50.570;10.428;2023-04-06T04:11:45;98208.13;;;-0.85
61977;BMP280;45905;50.570;10.428;2023-04-06T04:14:12;98207.22;;;-0.84
61977;BMP280;45905;50.570;10.428;2023-04-06T04:16:40;98213.09;;;-0.85
61977;BMP280;45905;50.570;10.428;2023-04-06T04:19:08;98210.53;;;-0.83
61977;BMP280;45905;50.570;10.428;2023-04-06T04:21:44;98215.75;;;-0.88
61977;BMP280;45905;50.570;10.428;2023-04-06T04:24:15;98216.13;;;-0.95
61977;BMP280;45905;50.570;10.428;2023-04-06T04:26:42;98214.44;;;-0.95
61977;BMP280;45905;50.570;10.428;2023-04-06T04:29:09;98212.84;;;-0.96
61977;BMP280;45905;50.570;10.428;2023-04-06T04:31:37;98213.81;;;-0.98
61977;BMP280;45905;50.570;10.428;2023-04-06T04:34:12;98218.06;;;-1.00
61977;BMP280;45905;50.570;10.428;2023-04-06T04:36:39;98213.00;;;-0.98
61977;BMP280;45905;50.570;10.428;2023-04-06T04:39:13;98218.88;;;-0.99
61977;BMP280;45905;50.570;10.428;2023-04-06T04:41:44;98219.75;;;-1.00
61977;BMP280;45905;50.570;10.428;2023-04-06T04:44:12;98216.44;;;-1.01
61977;BMP280;45905;50.570;10.428;2023-04-06T04:46:40;98224.84;;;-1.03
61977;BMP280;45905;50.570;10.428;2023-04-06T04:49:10;98222.38;;;-1.03
61977;BMP280;45905;50.570;10.428;2023-04-06T04:51:39;98224.94;;;-1.05
61977;BMP280;45905;50.570;10.428;2023-04-06T04:54:12;98222.38;;;-1.03
61977;BMP280;45905;50.570;10.428;2023-04-06T04:56:40;98223.25;;;-1.04
61977;BMP280;45905;50.570;10.428;2023-04-06T04:59:18;98214.91;;;-1.03
61977;BMP280;45905;50.570;10.428;2023-04-06T05:01:53;98230.63;;;-1.03
61977;BMP280;45905;50.570;10.428;2023-04-06T05:04:29;98233.28;;;-1.06
61977;BMP280;45905;50.570;10.428;2023-04-06T05:07:07;98227.53;;;-1.06
61977;BMP280;45905;50.570;10.428;2023-04-06T05:09:37;98228.31;;;-1.06
61977;BMP280;45905;50.570;10.428;2023-04-06T05:12:06;98233.38;;;-1.07
61977;BMP280;45905;50.570;10.428;2023-04-06T05:14:39;98231.75;;;-1.08
61977;BMP280;45905;50.570;10.428;2023-04-06T05:17:13;98224.44;;;-1.11
61977;BMP280;45905;50.570;10.428;2023-04-06T05:19:40;98229.41;;;-1.11
61977;BMP280;45905;50.570;10.428;2023-04-06T05:22:09;98231.03;;;-1.10
61977;BMP280;45905;50.570;10.428;2023-04-06T05:24:40;98229.28;;;-1.08
61977;BMP280;45905;50.570;10.428;2023-04-06T05:27:07;98230.88;;;-1.07
61977;BMP280;45905;50.570;10.428;2023-04-06T05:29:35;98229.41;;;-1.11
61977;BMP280;45905;50.570;10.428;2023-04-06T05:32:03;98237.47;;;-1.06
61977;BMP280;45905;50.570;10.428;2023-04-06T05:34:31;98237.47;;;-1.06
61977;BMP280;45905;50.570;10.428;2023-04-06T05:37:02;98240.81;;;-1.07
61977;BMP280;45905;50.570;10.428;2023-04-06T05:39:29;98232.63;;;-1.09
61977;BMP280;45905;50.570;10.428;2023-04-06T05:41:57;98240.81;;;-1.07
61977;BMP280;45905;50.570;10.428;2023-04-06T05:44:36;98237.47;;;-1.06
61977;BMP280;45905;50.570;10.428;2023-04-06T05:47:13;98236.66;;;-1.07
61977;BMP280;45905;50.570;10.428;2023-04-06T05:49:42;98246.03;;;-1.12
61977;BMP280;45905;50.570;10.428;2023-04-06T05:52:15;98247.63;;;-1.11
61977;BMP280;45905;50.570;10.428;2023-04-06T05:54:45;98243.38;;;-1.09
61977;BMP280;45905;50.570;10.428;2023-04-06T05:57:13;98238.28;;;-1.06
61977;BMP280;45905;50.570;10.428;2023-04-06T05:59:40;98239.84;;;-1.05
61977;BMP280;45905;50.570;10.428;2023-04-06T06:02:10;98244.03;;;-1.05
61977;BMP280;45905;50.570;10.428;2023-04-06T06:04:41;98237.47;;;-1.06
61977;BMP280;45905;50.570;10.428;2023-04-06T06:07:08;98239.84;;;-1.05
61977;BMP280;45905;50.570;10.428;2023-04-06T06:09:41;98239.84;;;-1.05
61977;BMP280;45905;50.570;10.428;2023-04-06T06:12:17;98236.59;;;-1.05
61977;BMP280;45905;50.570;10.428;2023-04-06T06:14:44;98234.66;;;-1.00
61977;BMP280;45905;50.570;10.428;2023-04-06T06:17:12;98238.59;;;-0.96
61977;BMP280;45905;50.570;10.428;2023-04-06T06:19:45;98237.69;;;-0.96
61977;BMP280;45905;50.570;10.428;2023-04-06T06:22:12;98232.50;;;-0.91
61977;BMP280;45905;50.570;10.428;2023-04-06T06:24:43;98230.91;;;-0.92
61977;BMP280;45905;50.570;10.428;2023-04-06T06:27:11;98244.88;;;-0.90
61977;BMP280;45905;50.570;10.428;2023-04-06T06:29:38;98236.53;;;-0.89
61977;BMP280;45905;50.570;10.428;2023-04-06T06:32:06;98241.97;;;-0.82
61977;BMP280;45905;50.570;10.428;2023-04-06T06:34:36;98240.69;;;-0.74
61977;BMP280;45905;50.570;10.428;2023-04-06T06:37:05;98241.44;;;-0.72
61977;BMP280;45905;50.570;10.428;2023-04-06T06:39:34;98237.00;;;-0.67
61977;BMP280;45905;50.570;10.428;2023-04-06T06:42:01;98237.41;;;-0.59
61977;BMP280;45905;50.570;10.428;2023-04-06T06:44:51;98236.53;;;-0.58
61977;BMP280;45905;50.570;10.428;2023-04-06T06:47:18;98235.56;;;-0.56
61977;BMP280;45905;50.570;10.428;2023-04-06T06:49:45;98242.06;;;-0.54
61977;BMP280;45905;50.570;10.428;2023-04-06T06:52:13;98234.50;;;-0.52
61977;BMP280;45905;50.570;10.428;2023-04-06T06:54:40;98230.44;;;-0.53
61977;BMP280;45905;50.570;10.428;2023-04-06T06:57:07;98248.66;;;-0.53
61977;BMP280;45905;50.570;10.428;2023-04-06T06:59:34;98236.91;;;-0.51
61977;BMP280;45905;50.570;10.428;2023-04-06T07:02:02;98243.44;;;-0.48
61977;BMP280;45905;50.570;10.428;2023-04-06T07:04:30;98250.66;;;-0.44
61977;BMP280;45905;50.570;10.428;2023-04-06T07:06:58;98233.78;;;-0.39
61977;BMP280;45905;50.570;10.428;2023-04-06T07:09:25;98233.44;;;-0.33
61977;BMP280;45905;50.570;10.428;2023-04-06T07:11:53;98234.03;;;-0.28
61977;BMP280;45905;50.570;10.428;2023-04-06T07:14:20;98226.22;;;-0.22
61977;BMP280;45905;50.570;10.428;2023-04-06T07:16:48;98228.34;;;-0.17
61977;BMP280;45905;50.570;10.428;2023-04-06T07:19:17;98230.53;;;-0.11
61977;BMP280;45905;50.570;10.428;2023-04-06T07:21:44;98230.91;;;-0.03
61977;BMP280;45905;50.570;10.428;2023-04-06T07:24:11;98228.00;;;0.04
61977;BMP280;45905;50.570;10.428;2023-04-06T07:26:39;98237.69;;;0.09
61977;BMP280;45905;50.570;10.428;2023-04-06T07:29:06;98234.06;;;0.14
61977;BMP280;45905;50.570;10.428;2023-04-06T07:31:34;98232.75;;;0.22
61977;BMP280;45905;50.570;10.428;2023-04-06T07:34:03;98228.94;;;0.31
61977;BMP280;45905;50.570;10.428;2023-04-06T07:36:30;98222.81;;;0.36
61977;BMP280;45905;50.570;10.428;2023-04-06T07:38:58;98228.16;;;0.44
61977;BMP280;45905;50.570;10.428;2023-04-06T07:41:25;98223.56;;;0.52
61977;BMP280;45905;50.570;10.428;2023-04-06T07:43:53;98221.44;;;0.59
61977;BMP280;45905;50.570;10.428;2023-04-06T07:46:20;98219.31;;;0.67
61977;BMP280;45905;50.570;10.428;2023-04-06T07:48:48;98213.59;;;0.79
61977;BMP280;45905;50.570;10.428;2023-04-06T07:51:17;98210.22;;;0.94
61977;BMP280;45905;50.570;10.428;2023-04-06T07:53:46;98206.72;;;1.10
61977;BMP280;45905;50.570;10.428;2023-04-06T07:56:13;98201.81;;;1.22
61977;BMP280;45905;50.570;10.428;2023-04-06T07:58:42;98197.75;;;1.33
61977;BMP280;45905;50.570;10.428;2023-04-06T08:01:09;98194.44;;;1.46
61977;BMP280;45905;50.570;10.428;2023-04-06T08:03:37;98191.88;;;1.60
61977;BMP280;45905;50.570;10.428;2023-04-06T08:06:04;98193.63;;;1.71
61977;BMP280;45905;50.570;10.428;2023-04-06T08:08:32;98196.44;;;1.79
61977;BMP280;45905;50.570;10.428;2023-04-06T08:10:59;98194.97;;;1.89
61977;BMP280;45905;50.570;10.428;2023-04-06T08:13:28;98189.22;;;2.01
61977;BMP280;45905;50.570;10.428;2023-04-06T08:15:56;98192.53;;;2.13
61977;BMP280;45905;50.570;10.428;2023-04-06T08:18:23;98194.25;;;2.25
61977;BMP280;45905;50.570;10.428;2023-04-06T08:20:51;98196.47;;;2.42
61977;BMP280;45905;50.570;10.428;2023-04-06T08:23:18;98200.66;;;2.53
61977;BMP280;45905;50.570;10.428;2023-04-06T08:25:45;98190.06;;;2.62
61977;BMP280;45905;50.570;10.428;2023-04-06T08:28:12;98197.25;;;2.79
61977;BMP280;45905;50.570;10.428;2023-04-06T08:30:43;98204.63;;;2.92
61977;BMP280;45905;50.570;10.428;2023-04-06T08:33:10;98190.13;;;2.97
61977;BMP280;45905;50.570;10.428;2023-04-06T08:35:37;98195.81;;;2.99
61977;BMP280;45905;50.570;10.428;2023-04-06T08:38:05;98192.00;;;3.06
61977;BMP280;45905;50.570;10.428;2023-04-06T08:40:37;98186.25;;;3.16
61977;BMP280;45905;50.570;10.428;2023-04-06T08:43:09;98186.22;;;3.28
61977;BMP280;45905;50.570;10.428;2023-04-06T08:45:40;98181.78;;;3.44
61977;BMP280;45905;50.570;10.428;2023-04-06T08:48:09;98177.34;;;3.70
61977;BMP280;45905;50.570;10.428;2023-04-06T08:50:38;98179.09;;;3.80
61977;BMP280;45905;50.570;10.428;2023-04-06T08:53:06;98168.34;;;3.91
61977;BMP280;45905;50.570;10.428;2023-04-06T08:55:35;98186.16;;;4.09
61977;BMP280;45905;50.570;10.428;2023-04-06T08:58:06;98184.97;;;4.25
61977;BMP280;45905;50.570;10.428;2023-04-06T09:00:39;98187.81;;;4.32
61977;BMP280;45905;50.570;10.428;2023-04-06T09:03:07;98172.91;;;4.41
61977;BMP280;45905;50.570;10.428;2023-04-06T09:05:35;98175.75;;;4.47
61977;BMP280;45905;50.570;10.428;2023-04-06T09:08:03;98169.41;;;4.54
61977;BMP280;45905;50.570;10.428;2023-04-06T09:10:31;98171.00;;;4.76
61977;BMP280;45905;50.570;10.428;2023-04-06T09:13:06;98171.22;;;4.95
61977;BMP280;45905;50.570;10.428;2023-04-06T09:15:34;98169.38;;;5.08
61977;BMP280;45905;50.570;10.428;2023-04-06T09:18:01;98170.06;;;5.20
61977;BMP280;45905;50.570;10.428;2023-04-06T09:20:29;98168.44;;;5.30
61977;BMP280;45905;50.570;10.428;2023-04-06T09:22:56;98169.09;;;5.43
61977;BMP280;45905;50.570;10.428;2023-04-06T09:25:25;98172.16;;;5.57
61977;BMP280;45905;50.570;10.428;2023-04-06T09:28:03;98167.78;;;5.70
61977;BMP280;45905;50.570;10.428;2023-04-06T09:30:31;98166.72;;;5.83
61977;BMP280;45905;50.570;10.428;2023-04-06T09:32:58;98159.56;;;5.98
61977;BMP280;45905;50.570;10.428;2023-04-06T09:35:27;98153.81;;;6.07
61977;BMP280;45905;50.570;10.428;2023-04-06T09:37:54;98156.03;;;6.21
61977;BMP280;45905;50.570;10.428;2023-04-06T09:40:22;98156.22;;;6.28
61977;BMP280;45905;50.570;10.428;2023-04-06T09:42:50;98150.00;;;6.32
61977;BMP280;45905;50.570;10.428;2023-04-06T09:45:20;98146.72;;;6.41
61977;BMP280;45905;50.570;10.428;2023-04-06T09:47:49;98148.50;;;6.50
61977;BMP280;45905;50.570;10.428;2023-04-06T09:50:19;98144.84;;;6.54
61977;BMP280;45905;50.570;10.428;2023-04-06T09:52:51;98150.38;;;6.57
61977;BMP280;45905;50.570;10.428;2023-04-06T09:55:39;98138.25;;;6.62
61977;BMP280;45905;50.570;10.428;2023-04-06T09:58:12;98146.94;;;6.78
61977;BMP280;45905;50.570;10.428;2023-04-06T10:01:02;98138.38;;;6.90
61977;BMP280;45905;50.570;10.428;2023-04-06T10:03:56;98141.03;;;6.98
61977;BMP280;45905;50.570;10.428;2023-04-06T10:06:31;98135.09;;;6.99
61977;BMP280;45905;50.570;10.428;2023-04-06T10:09:04;98138.44;;;7.08
61977;BMP280;45905;50.570;10.428;2023-04-06T10:11:35;98136.59;;;7.20
61977;BMP280;45905;50.570;10.428;2023-04-06T10:14:02;98137.28;;;7.31
61977;BMP280;45905;50.570;10.428;2023-04-06T10:16:30;98129.19;;;7.37
61977;BMP280;45905;50.570;10.428;2023-04-06T10:19:08;98129.06;;;7.38
61977;BMP280;45905;50.570;10.428;2023-04-06T10:21:39;98128.53;;;7.53
61977;BMP280;45905;50.570;10.428;2023-04-06T10:24:09;98122.06;;;7.60
61977;BMP280;45905;50.570;10.428;2023-04-06T10:26:38;98121.53;;;7.66
61977;BMP280;45905;50.570;10.428;2023-04-06T10:29:06;98123.66;;;7.80
61977;BMP280;45905;50.570;10.428;2023-04-06T10:31:39;98119.41;;;7.80
61977;BMP280;45905;50.570;10.428;2023-04-06T10:34:09;98126.44;;;7.95
61977;BMP280;45905;50.570;10.428;2023-04-06T10:36:36;98111.59;;;8.11
61977;BMP280;45905;50.570;10.428;2023-04-06T10:39:05;98110.66;;;8.21
61977;BMP280;45905;50.570;10.428;2023-04-06T10:41:44;98113.97;;;8.21
61977;BMP280;45905;50.570;10.428;2023-04-06T10:44:23;98113.16;;;8.21
61977;BMP280;45905;50.570;10.428;2023-04-06T10:47:00;98099.72;;;8.39
61977;BMP280;45905;50.570;10.428;2023-04-06T10:49:30;98094.22;;;8.53
61977;BMP280;45905;50.570;10.428;2023-04-06T10:51:57;98094.69;;;8.65
61977;BMP280;45905;50.570;10.428;2023-04-06T10:54:26;98093.22;;;8.72
61977;BMP280;45905;50.570;10.428;2023-04-06T10:56:54;98092.81;;;8.94
61977;BMP280;45905;50.570;10.428;2023-04-06T10:59:23;98078.66;;;9.10
61977;BMP280;45905;50.570;10.428;2023-04-06T11:01:52;98085.88;;;9.22
61977;BMP280;45905;50.570;10.428;2023-04-06T11:04:21;98086.09;;;9.28
61977;BMP280;45905;50.570;10.428;2023-04-06T11:06:50;98084.69;;;9.43
61977;BMP280;45905;50.570;10.428;2023-04-06T11:09:26;98086.13;;;9.45
61977;BMP280;45905;50.570;10.428;2023-04-06T11:11:54;98076.66;;;9.64
61977;BMP280;45905;50.570;10.428;2023-04-06T11:14:23;98073.09;;;9.74
61977;BMP280;45905;50.570;10.428;2023-04-06T11:16:50;98083.88;;;9.93
61977;BMP280;45905;50.570;10.428;2023-04-06T11:19:18;98071.81;;;10.05
61977;BMP280;45905;50.570;10.428;2023-04-06T11:21:48;98070.25;;;10.11
61977;BMP280;45905;50.570;10.428;2023-04-06T11:24:23;98071.09;;;10.20
61977;BMP280;45905;50.570;10.428;2023-04-06T11:26:57;98065.47;;;10.33
61977;BMP280;45905;50.570;10.428;2023-04-06T11:29:30;98057.78;;;10.43
61977;BMP280;45905;50.570;10.428;2023-04-06T11:32:02;98057.88;;;10.58
61977;BMP280;45905;50.570;10.428;2023-04-06T11:34:33;98047.81;;;10.74
61977;BMP280;45905;50.570;10.428;2023-04-06T11:37:09;98049.59;;;10.89
61977;BMP280;45905;50.570;10.428;2023-04-06T11:39:49;98039.19;;;11.00
61977;BMP280;45905;50.570;10.428;2023-04-06T11:42:26;98045.72;;;11.10
61977;BMP280;45905;50.570;10.428;2023-04-06T11:44:56;98053.34;;;11.18
61977;BMP280;45905;50.570;10.428;2023-04-06T11:47:33;98044.16;;;11.17
61977;BMP280;45905;50.570;10.428;2023-04-06T11:50:12;98042.03;;;11.05
61977;BMP280;45905;50.570;10.428;2023-04-06T11:52:41;98039.84;;;11.09
61977;BMP280;45905;50.570;10.428;2023-04-06T11:55:18;98030.56;;;11.41
61977;BMP280;45905;50.570;10.428;2023-04-06T11:57:45;98035.03;;;11.70
61977;BMP280;45905;50.570;10.428;2023-04-06T12:00:13;98028.06;;;11.88
61977;BMP280;45905;50.570;10.428;2023-04-06T12:02:46;98025.50;;;11.96
61977;BMP280;45905;50.570;10.428;2023-04-06T12:05:14;98030.56;;;12.03
61977;BMP280;45905;50.570;10.428;2023-04-06T12:07:42;98024.22;;;12.00
61977;BMP280;45905;50.570;10.428;2023-04-06T12:10:09;98031.34;;;12.12
61977;BMP280;45905;50.570;10.428;2023-04-06T12:12:37;98016.59;;;12.15
61977;BMP280;45905;50.570;10.428;2023-04-06T12:15:05;98023.06;;;12.18
61977;BMP280;45905;50.570;10.428;2023-04-06T12:17:32;98016.88;;;12.20
61977;BMP280;45905;50.570;10.428;2023-04-06T12:19:59;98014.34;;;12.20
61977;BMP280;45905;50.570;10.428;2023-04-06T12:22:43;98009.22;;;12.36
61977;BMP280;45905;50.570;10.428;2023-04-06T12:25:10;98010.13;;;12.58
61977;BMP280;45905;50.570;10.428;2023-04-06T12:27:38;98013.28;;;12.68
61977;BMP280;45905;50.570;10.428;2023-04-06T12:30:06;98011.22;;;12.63
61977;BMP280;45905;50.570;10.428;2023-04-06T12:32:34;98002.31;;;12.67
61977;BMP280;45905;50.570;10.428;2023-04-06T12:35:01;98000.84;;;12.73
61977;BMP280;45905;50.570;10.428;2023-04-06T12:37:28;97995.09;;;12.78
61977;BMP280;45905;50.570;10.428;2023-04-06T12:39:55;97996.25;;;12.76
61977;BMP280;45905;50.570;10.428;2023-04-06T12:42:22;97999.88;;;12.81
61977;BMP280;45905;50.570;10.428;2023-04-06T12:44:50;98000.56;;;12.97
61977;BMP280;45905;50.570;10.428;2023-04-06T12:47:17;97995.00;;;13.02
61977;BMP280;45905;50.570;10.428;2023-04-06T12:49:45;97996.53;;;13.11
61977;BMP280;45905;50.570;10.428;2023-04-06T12:52:12;97993.94;;;13.18
61977;BMP280;45905;50.570;10.428;2023-04-06T12:54:41;97974.16;;;13.28
61977;BMP280;45905;50.570;10.428;2023-04-06T12:57:08;97980.94;;;13.35
61977;BMP280;45905;50.570;10.428;2023-04-06T12:59:35;97974.72;;;13.38
61977;BMP280;45905;50.570;10.428;2023-04-06T13:02:04;97988.00;;;13.26
61977;BMP280;45905;50.570;10.428;2023-04-06T13:04:32;97980.25;;;13.19
61977;BMP280;45905;50.570;10.428;2023-04-06T13:07:00;97977.56;;;13.21
61977;BMP280;45905;50.570;10.428;2023-04-06T13:09:27;97965.91;;;13.26
61977;BMP280;45905;50.570;10.428;2023-04-06T13:11:54;97976.31;;;13.39
61977;BMP280;45905;50.570;10.428;2023-04-06T13:14:22;97968.25;;;13.50
61977;BMP280;45905;50.570;10.428;2023-04-06T13:16:49;97961.09;;;13.67
61977;BMP280;45905;50.570;10.428;2023-04-06T13:19:18;97965.16;;;13.76
61977;BMP280;45905;50.570;10.428;2023-04-06T13:21:45;97953.28;;;13.91
61977;BMP280;45905;50.570;10.428;2023-04-06T13:24:12;97958.22;;;14.06
61977;BMP280;45905;50.570;10.428;2023-04-06T13:26:42;97944.75;;;14.12
61977;BMP280;45905;50.570;10.428;2023-04-06T13:29:09;97951.09;;;14.30
61977;BMP280;45905;50.570;10.428;2023-04-06T13:31:37;97939.03;;;14.38
61977;BMP280;45905;50.570;10.428;2023-04-06T13:34:05;97940.41;;;14.55
61977;BMP280;45905;50.570;10.428;2023-04-06T13:36:32;97932.94;;;14.68
61977;BMP280;45905;50.570;10.428;2023-04-06T13:38:59;97931.25;;;14.74
61977;BMP280;45905;50.570;10.428;2023-04-06T13:41:26;97937.38;;;14.80
61977;BMP280;45905;50.570;10.428;2023-04-06T13:43:54;97933.28;;;14.65
61977;BMP280;45905;50.570;10.428;2023-04-06T13:46:21;97928.00;;;14.66
61977;BMP280;45905;50.570;10.428;2023-04-06T13:48:51;97928.81;;;14.67
61977;BMP280;45905;50.570;10.428;2023-04-06T13:51:18;97929.03;;;14.71
61977;BMP280;45905;50.570;10.428;2023-04-06T13:53:45;97919.97;;;14.83
61977;BMP280;45905;50.570;10.428;2023-04-06T13:56:12;97918.88;;;14.92
61977;BMP280;45905;50.570;10.428;2023-04-06T13:58:40;97922.94;;;15.01
61977;BMP280;45905;50.570;10.428;2023-04-06T14:01:08;97922.69;;;15.16
61977;BMP280;45905;50.570;10.428;2023-04-06T14:03:37;97918.69;;;15.28
61977;BMP280;45905;50.570;10.428;2023-04-06T14:06:13;97912.47;;;15.37
61977;BMP280;45905;50.570;10.428;2023-04-06T14:08:56;97902.16;;;15.51
61977;BMP280;45905;50.570;10.428;2023-04-06T14:11:24;97905.47;;;15.45
61977;BMP280;45905;50.570;10.428;2023-04-06T14:13:51;97917.72;;;15.29
61977;BMP280;45905;50.570;10.428;2023-04-06T14:16:18;97909.56;;;15.19